Time;durP1;ratioP1;P1;durP2;ratioP2;P2;SDS_P1;SDS_P2;PMS_P1;PMS_P2;Temp;Humidity;BMP_temperature;BMP_pressure;BME280_temperature;BME280_humidity;BME280_pressure;Samples;Min_cycle;Max_cycle;Signal;HPM_P1;HPM_P2
2024/02/03 00:00:42;;;;;;;41.55;24.17;;;;;;;2.05;91.21;93824.34;5083111;28;20144;-71
2024/02/03 00:03:09;;;;;;;37.33;21.83;;;;;;;2.03;91.82;93825.41;5073887;28;20143;-71
2024/02/03 00:05:36;;;;;;;38.33;23.13;;;;;;;2.04;91.68;93827.78;5069498;28;20143;-72
2024/02/03 00:08:03;;;;;;;46.33;26.58;;;;;;;2.02;90.91;93827.13;5069942;28;20075;-71
2024/02/03 00:10:31;;;;;;;43.08;26.70;;;;;;;1.96;91.61;93825.16;5069483;28;22283;-72
2024/02/03 00:13:01;;;;;;;51.50;30.15;;;;;;;1.89;92.56;93824.16;5074341;28;20057;-72
2024/02/03 00:15:28;;;;;;;45.67;26.17;;;;;;;1.90;91.94;93815.59;5074851;28;20067;-72
2024/02/03 00:17:55;;;;;;;46.17;27.20;;;;;;;1.82;91.66;93823.91;5069492;28;20036;-72
2024/02/03 00:20:22;;;;;;;45.17;26.65;;;;;;;1.71;92.82;93817.28;5067986;28;20040;-72
2024/02/03 00:22:51;;;;;;;43.33;25.38;;;;;;;1.68;91.35;93828.50;5073526;28;20117;-71
2024/02/03 00:25:18;;;;;;;43.15;26.10;;;;;;;1.56;91.71;93830.41;5075209;28;20471;-71
2024/02/03 00:27:48;;;;;;;41.60;24.83;;;;;;;1.45;91.92;93833.09;5071666;28;20055;-71
2024/02/03 00:30:15;;;;;;;46.10;27.50;;;;;;;1.39;91.94;93831.91;5071211;28;20123;-71
2024/02/03 00:32:42;;;;;;;63.45;34.50;;;;;;;1.27;92.77;93820.34;5079631;28;20135;-72
2024/02/03 00:35:09;;;;;;;49.05;28.33;;;;;;;1.25;93.16;93828.09;5072059;28;20479;-72
2024/02/03 00:37:36;;;;;;;44.67;25.63;;;;;;;1.24;93.34;93825.72;5070600;28;20416;-72
2024/02/03 00:40:04;;;;;;;45.78;27.17;;;;;;;1.26;93.60;93823.81;5070316;28;20048;-72
2024/02/03 00:42:31;;;;;;;41.78;24.88;;;;;;;1.22;93.93;93820.78;5075425;28;20140;-71
2024/02/03 00:45:00;;;;;;;44.65;24.88;;;;;;;1.20;93.32;93818.38;5071893;28;20101;-72
2024/02/03 00:47:27;;;;;;;30.83;20.27;;;;;;;1.13;93.47;93814.81;5070202;28;20147;-72
2024/02/03 00:49:54;;;;;;;23.92;15.40;;;;;;;1.11;93.28;93811.59;5071478;28;20564;-72
2024/02/03 00:52:21;;;;;;;15.48;9.82;;;;;;;1.03;93.78;93814.81;5075822;28;20127;-72
2024/02/03 00:54:48;;;;;;;20.73;12.43;;;;;;;0.82;94.30;93799.00;5068258;28;20128;-72
2024/02/03 00:57:15;;;;;;;16.52;10.73;;;;;;;0.79;93.02;93788.22;5078387;28;20504;-72
2024/02/03 00:59:42;;;;;;;17.63;11.43;;;;;;;0.81;93.84;93798.22;5070616;28;20127;-72
2024/02/03 01:02:10;;;;;;;14.45;9.82;;;;;;;0.78;94.31;93799.28;5069423;28;20584;-72
2024/02/03 01:04:37;;;;;;;14.95;8.48;;;;;;;0.67;94.59;93804.47;5072308;28;20103;-72
2024/02/03 01:07:06;;;;;;;15.32;8.90;;;;;;;0.65;94.26;93807.13;5067898;28;20545;-72
2024/02/03 01:09:33;;;;;;;12.35;8.70;;;;;;;0.58;94.21;93795.97;5066656;28;20044;-72
2024/02/03 01:12:00;;;;;;;15.57;9.95;;;;;;;0.52;94.28;93807.41;5077716;28;20150;-72
2024/02/03 01:14:28;;;;;;;14.70;8.57;;;;;;;0.49;94.75;93812.72;5083881;28;20127;-72
2024/02/03 01:16:55;;;;;;;16.40;10.25;;;;;;;0.39;95.24;93814.44;5076723;28;20063;-72
2024/02/03 01:19:24;;;;;;;20.30;11.52;;;;;;;0.45;95.57;93808.06;5072051;28;20501;-72
2024/02/03 01:21:52;;;;;;;21.27;12.63;;;;;;;0.39;95.16;93812.72;5069590;28;20051;-72
2024/02/03 01:24:19;;;;;;;17.58;11.13;;;;;;;0.41;93.84;93810.06;5080669;28;20052;-72
2024/02/03 01:26:46;;;;;;;17.00;10.07;;;;;;;0.34;93.93;93806.47;5068749;28;20551;-72
2024/02/03 01:29:13;;;;;;;22.13;12.25;;;;;;;0.25;93.35;93793.69;5070897;28;20450;-72
2024/02/03 01:31:40;;;;;;;18.48;11.98;;;;;;;0.34;93.64;93801.41;5070614;28;20066;-72
2024/02/03 01:34:07;;;;;;;16.75;11.07;;;;;;;0.35;94.15;93806.34;5076957;28;20507;-72
2024/02/03 01:36:36;;;;;;;15.48;9.23;;;;;;;0.12;93.92;93767.88;5073538;28;20508;-72
2024/02/03 01:39:05;;;;;;;14.10;9.25;;;;;;;0.23;94.33;93792.25;5070244;28;20049;-73
2024/02/03 01:41:33;;;;;;;14.52;10.05;;;;;;;0.23;94.45;93802.34;5068686;28;20052;-73
2024/02/03 01:44:00;;;;;;;18.90;10.27;;;;;;;0.22;93.97;93803.25;5070115;28;20412;-72
2024/02/03 01:46:27;;;;;;;16.17;9.68;;;;;;;0.18;93.84;93797.66;5072730;28;20143;-73
2024/02/03 01:48:54;;;;;;;13.98;9.10;;;;;;;0.18;93.70;93797.66;5066977;28;20128;-73
2024/02/03 01:51:21;;;;;;;16.30;10.20;;;;;;;0.16;93.63;93781.03;5075611;28;20059;-72
2024/02/03 01:53:50;;;;;;;13.32;8.40;;;;;;;0.09;94.32;93781.56;5073409;28;20154;-72
2024/02/03 01:56:18;;;;;;;11.70;8.23;;;;;;;0.08;94.99;93771.59;5071368;28;20125;-73
2024/02/03 01:58:45;;;;;;;13.82;8.13;;;;;;;0.02;93.71;93780.50;5072987;28;20086;-72
2024/02/03 02:01:13;;;;;;;13.65;8.55;;;;;;;-0.06;92.23;93763.47;5072522;28;20123;-72
2024/02/03 02:03:40;;;;;;;15.70;8.80;;;;;;;-0.12;92.66;93764.00;5073255;28;20078;-73
2024/02/03 02:06:08;;;;;;;15.00;8.35;;;;;;;-0.17;93.61;93766.91;5074140;28;20040;-72
2024/02/03 02:08:36;;;;;;;14.10;8.48;;;;;;;-0.25;94.33;93765.94;5071973;28;20511;-73
2024/02/03 02:11:06;;;;;;;13.15;8.10;;;;;;;-0.28;93.73;93765.28;5073067;28;20127;-73
2024/02/03 02:13:36;;;;;;;12.60;7.88;;;;;;;-0.31;94.17;93767.28;5074279;28;20052;-73
2024/02/03 02:16:04;;;;;;;15.60;7.93;;;;;;;-0.50;93.72;93753.69;5072420;28;20040;-73
2024/02/03 02:18:31;;;;;;;15.98;9.25;;;;;;;-0.52;93.30;93754.72;5074318;28;20049;-73
2024/02/03 02:21:00;;;;;;;30.25;13.10;;;;;;;-0.50;93.41;93761.25;5070973;28;20056;-72
2024/02/03 02:23:27;;;;;;;25.25;12.65;;;;;;;-0.55;94.76;93761.63;5080479;28;20438;-73
2024/02/03 02:25:55;;;;;;;36.45;16.27;;;;;;;-0.51;94.40;93767.19;5071069;28;20654;-73
2024/02/03 02:28:22;;;;;;;40.10;18.30;;;;;;;-0.58;94.31;93769.47;5081773;28;20061;-72
2024/02/03 02:30:50;;;;;;;38.28;18.25;;;;;;;-0.55;94.52;93764.13;5074379;28;20041;-73
2024/02/03 02:33:17;;;;;;;24.90;13.25;;;;;;;-0.55;95.50;93764.13;5073378;28;20056;-72
2024/02/03 02:35:49;;;;;;;37.47;20.45;;;;;;;-0.53;95.59;93766.53;5072528;28;20143;-72
2024/02/03 02:38:18;;;;;;;24.70;15.40;;;;;;;-0.59;96.60;93760.31;5073574;28;20135;-72
2024/02/03 02:40:45;;;;;;;27.08;16.38;;;;;;;-0.62;97.80;93762.25;5069518;28;20041;-72
2024/02/03 02:43:12;;;;;;;27.67;18.48;;;;;;;-0.59;98.81;93757.78;5073872;28;20048;-73
2024/02/03 02:45:39;;;;;;;29.33;19.77;;;;;;;-0.50;99.18;93762.97;5076886;28;20541;-72
2024/02/03 02:48:07;;;;;;;33.33;20.27;;;;;;;-0.43;99.13;93757.28;5072920;28;20163;-71
2024/02/03 02:50:34;;;;;;;37.00;23.05;;;;;;;-0.39;99.21;93754.47;5072736;28;20049;-72
2024/02/03 02:53:01;;;;;;;33.20;20.63;;;;;;;-0.43;99.45;93749.72;5078641;28;20139;-72
2024/02/03 02:55:29;;;;;;;28.80;19.08;;;;;;;-0.33;99.49;93736.31;5070083;28;20436;-72
2024/02/03 02:57:56;;;;;;;36.25;21.90;;;;;;;-0.30;99.17;93746.16;5075914;28;20127;-72
2024/02/03 03:00:23;;;;;;;27.40;18.40;;;;;;;-0.25;99.05;93735.66;5070265;28;20098;-72
2024/02/03 03:02:50;;;;;;;26.52;17.27;;;;;;;-0.28;98.83;93735.00;5072890;28;20127;-72
2024/02/03 03:05:17;;;;;;;18.70;11.20;;;;;;;-0.30;97.57;93733.53;5071848;28;20472;-71
2024/02/03 03:07:45;;;;;;;14.55;10.43;;;;;;;-0.45;97.28;93723.00;5071105;28;20054;-71
2024/02/03 03:10:12;;;;;;;12.07;8.00;;;;;;;-0.40;96.54;93736.03;5073870;28;20059;-72
2024/02/03 03:12:41;;;;;;;13.38;8.18;;;;;;;-0.41;96.22;93731.91;5074653;28;20140;-72
2024/02/03 03:15:09;;;;;;;13.20;8.48;;;;;;;-0.55;96.84;93733.06;5071417;28;20177;-71
2024/02/03 03:17:36;;;;;;;11.90;7.90;;;;;;;-0.54;97.36;93730.41;5074763;28;20139;-72
2024/02/03 03:20:04;;;;;;;17.55;9.90;;;;;;;-0.57;97.63;93728.16;5069581;28;20048;-71
2024/02/03 03:22:31;;;;;;;13.05;8.48;;;;;;;-0.52;97.80;93729.50;5072368;28;20072;-72
2024/02/03 03:24:58;;;;;;;17.98;10.00;;;;;;;-0.48;97.24;93725.78;5077925;28;20062;-72
2024/02/03 03:27:26;;;;;;;17.45;11.00;;;;;;;-0.49;97.33;93734.28;5072206;28;20041;-72
2024/02/03 03:29:54;;;;;;;16.83;10.88;;;;;;;-0.45;98.16;93730.56;5071556;28;20136;-71
2024/02/03 03:32:21;;;;;;;17.02;10.65;;;;;;;-0.48;98.08;93733.34;5071278;28;20044;-72
2024/02/03 03:34:49;;;;;;;19.85;11.18;;;;;;;-0.44;97.78;93727.13;5070220;28;20063;-72
2024/02/03 03:37:16;;;;;;;21.40;12.50;;;;;;;-0.56;97.89;93727.22;5071163;28;20045;-71
2024/02/03 03:39:42;;;;;;;22.55;13.50;;;;;;;-0.52;99.23;93716.88;5075314;28;20044;-71
2024/02/03 03:42:09;;;;;;;24.73;13.43;;;;;;;-0.47;99.51;93714.78;5079102;28;20055;-71
2024/02/03 03:44:36;;;;;;;20.00;12.15;;;;;;;-0.36;98.87;93723.94;5074296;28;20052;-71
2024/02/03 03:47:05;;;;;;;16.30;10.50;;;;;;;-0.33;98.13;93723.69;5069018;28;20048;-72
2024/02/03 03:49:33;;;;;;;19.92;11.00;;;;;;;-0.38;98.27;93726.59;5076582;28;20048;-72
2024/02/03 03:52:00;;;;;;;18.30;11.32;;;;;;;-0.33;97.27;93721.97;5072059;28;20051;-72
2024/02/03 03:54:27;;;;;;;15.77;9.88;;;;;;;-0.30;97.59;93720.91;5077183;28;20048;-71
2024/02/03 03:56:54;;;;;;;13.52;9.40;;;;;;;-0.30;97.05;93721.72;5076385;28;20135;-71
2024/02/03 03:59:21;;;;;;;14.38;8.68;;;;;;;-0.37;97.17;93719.84;5071608;28;20048;-72
2024/02/03 04:01:49;;;;;;;22.35;12.10;;;;;;;-0.28;96.89;93717.31;5072524;28;20040;-72
2024/02/03 04:04:18;;;;;;;19.02;11.68;;;;;;;-0.34;97.12;93717.84;5070711;28;20074;-73
2024/02/03 04:06:46;;;;;;;16.75;10.15;;;;;;;-0.32;96.56;93720.25;5072361;28;20101;-72
2024/02/03 04:09:13;;;;;;;20.27;12.23;;;;;;;-0.29;96.50;93723.31;5076613;28;20426;-71
2024/02/03 04:11:41;;;;;;;20.52;13.15;;;;;;;-0.29;95.66;93723.31;5077921;28;20048;-72
2024/02/03 04:14:08;;;;;;;22.60;15.40;;;;;;;-0.49;95.78;93698.94;5069998;28;20080;-72
2024/02/03 04:16:35;;;;;;;28.52;17.38;;;;;;;-0.33;95.81;93727.00;5071180;28;20485;-71
2024/02/03 04:19:02;;;;;;;18.92;11.65;;;;;;;-0.31;95.93;93725.16;5071178;28;20044;-72
2024/02/03 04:21:32;;;;;;;16.13;11.60;;;;;;;-0.32;96.64;93720.25;5075170;28;20123;-72
2024/02/03 04:23:59;;;;;;;18.25;11.70;;;;;;;-0.40;96.60;93720.88;5074377;28;20048;-71
2024/02/03 04:26:26;;;;;;;19.92;11.70;;;;;;;-0.40;95.84;93718.38;5072604;28;20054;-71
2024/02/03 04:28:53;;;;;;;14.35;10.65;;;;;;;-0.44;95.97;93717.03;5077721;28;20500;-71
2024/02/03 04:31:20;;;;;;;14.85;10.93;;;;;;;-0.39;95.76;93716.63;5071760;28;20049;-72
2024/02/03 04:33:47;;;;;;;14.13;10.98;;;;;;;-0.44;95.41;93711.97;5066864;28;20123;-72
2024/02/03 04:36:14;;;;;;;16.02;10.88;;;;;;;-0.47;95.39;93715.56;5073202;28;20041;-72
2024/02/03 04:38:43;;;;;;;16.38;10.90;;;;;;;-0.50;95.84;93708.25;5074292;28;20056;-72
2024/02/03 04:41:09;;;;;;;16.13;9.85;;;;;;;-0.50;96.40;93709.97;5069323;28;20120;-72
2024/02/03 04:43:36;;;;;;;15.43;11.05;;;;;;;-0.54;96.55;93704.38;5071876;28;20055;-72
2024/02/03 04:46:03;;;;;;;15.40;10.85;;;;;;;-0.50;96.64;93700.69;5073298;28;20044;-72
2024/02/03 04:48:30;;;;;;;18.10;11.05;;;;;;;-0.50;95.69;93704.91;5074721;28;20404;-72
2024/02/03 04:50:57;;;;;;;18.92;10.80;;;;;;;-0.64;96.56;93716.97;5071868;28;20051;-72
2024/02/03 04:53:24;;;;;;;17.48;11.15;;;;;;;-0.64;96.75;93722.03;5076034;28;20040;-72
2024/02/03 04:55:53;;;;;;;18.45;11.27;;;;;;;-0.60;96.01;93720.81;5073806;28;20053;-73
2024/02/03 04:58:19;;;;;;;19.67;11.82;;;;;;;-0.69;96.28;93727.44;5083712;28;20047;-72
2024/02/03 05:00:46;;;;;;;20.75;12.45;;;;;;;-0.76;97.11;93723.03;5081144;28;20046;-72
2024/02/03 05:03:14;;;;;;;22.85;12.82;;;;;;;-0.80;96.96;93735.09;5070573;28;20048;-73
2024/02/03 05:05:41;;;;;;;16.55;11.35;;;;;;;-0.85;96.98;93727.94;5072562;28;20924;-73
2024/02/03 05:08:07;;;;;;;20.08;11.70;;;;;;;-0.86;97.04;93743.19;5069435;28;20082;-72
2024/02/03 05:10:34;;;;;;;15.88;10.02;;;;;;;-0.90;97.66;93734.25;5072041;28;20048;-72
2024/02/03 05:13:03;;;;;;;19.80;14.57;;;;;;;-0.93;97.78;93729.47;5071934;28;20045;-72
2024/02/03 05:15:30;;;;;;;33.72;19.58;;;;;;;-0.89;97.60;93745.97;5067316;28;20053;-72
2024/02/03 05:17:56;;;;;;;35.35;19.80;;;;;;;-0.87;97.79;93755.00;5071547;28;20052;-72
2024/02/03 05:20:23;;;;;;;36.95;20.92;;;;;;;-0.97;97.43;93766.78;5070781;28;20036;-72
2024/02/03 05:22:50;;;;;;;33.83;18.70;;;;;;;-1.02;98.21;93762.09;5071202;28;20045;-72
2024/02/03 05:25:17;;;;;;;30.35;17.15;;;;;;;-0.99;97.95;93759.31;5070099;28;20075;-72
2024/02/03 05:27:44;;;;;;;29.23;17.80;;;;;;;-1.02;97.93;93768.88;5070130;28;20041;-72
2024/02/03 05:30:14;;;;;;;38.15;22.85;;;;;;;-0.99;98.20;93759.31;5079148;28;20052;-72
2024/02/03 05:32:41;;;;;;;41.42;24.23;;;;;;;-1.00;97.51;93762.78;5078161;28;20055;-72
2024/02/03 05:35:08;;;;;;;29.83;17.08;;;;;;;-1.09;97.48;93759.28;5075016;28;20054;-72
2024/02/03 05:37:35;;;;;;;21.80;13.23;;;;;;;-1.21;98.13;93753.50;5072713;28;20102;-72
2024/02/03 05:40:03;;;;;;;37.80;22.60;;;;;;;-1.35;98.24;93747.06;5072531;28;20764;-72
2024/02/03 05:42:30;;;;;;;37.05;22.50;;;;;;;-1.35;99.38;93746.25;5076139;28;20040;-73
2024/02/03 05:44:57;;;;;;;39.45;22.00;;;;;;;-1.36;99.19;93740.41;5074962;28;20075;-73
2024/02/03 05:47:26;;;;;;;43.40;23.45;;;;;;;-1.33;99.03;93746.13;5074548;28;20044;-73
2024/02/03 05:49:53;;;;;;;43.90;23.15;;;;;;;-1.48;98.56;93742.19;5076344;28;20484;-73
2024/02/03 05:52:20;;;;;;;29.42;17.10;;;;;;;-1.50;98.59;93738.19;5073449;28;20044;-73
2024/02/03 05:54:48;;;;;;;27.90;14.38;;;;;;;-1.68;99.80;93732.88;5078944;28;20056;-73
2024/02/03 05:57:15;;;;;;;22.85;14.43;;;;;;;-1.73;100.00;93740.03;5078583;28;20497;-73
2024/02/03 05:59:44;;;;;;;28.48;17.55;;;;;;;-1.66;100.00;93728.56;5074152;28;20492;-73
2024/02/03 06:02:11;;;;;;;34.65;22.23;;;;;;;-1.73;100.00;93727.44;5069861;28;20052;-73
2024/02/03 06:04:40;;;;;;;45.03;26.27;;;;;;;-1.73;100.00;93735.00;5078494;28;20056;-72
2024/02/03 06:07:07;;;;;;;45.47;26.98;;;;;;;-1.83;100.00;93713.06;5071892;28;20052;-72
2024/02/03 06:09:34;;;;;;;51.45;28.77;;;;;;;-1.81;100.00;93726.31;5073052;28;20044;-72
2024/02/03 06:12:03;;;;;;;41.45;25.15;;;;;;;-1.83;100.00;93733.19;5074372;28;20063;-72
2024/02/03 06:14:30;;;;;;;41.72;24.02;;;;;;;-1.84;100.00;93740.88;5076344;28;20048;-73
2024/02/03 06:16:57;;;;;;;38.72;22.63;;;;;;;-1.79;100.00;93733.75;5076918;28;20044;-72
2024/02/03 06:19:24;;;;;;;31.70;19.48;;;;;;;-1.81;100.00;93733.88;5074722;28;20051;-72
2024/02/03 06:21:53;;;;;;;28.83;18.17;;;;;;;-1.78;100.00;93730.31;5073041;28;20051;-72
2024/02/03 06:24:19;;;;;;;31.02;19.73;;;;;;;-1.80;100.00;93732.16;5068870;28;20056;-72
2024/02/03 06:26:46;;;;;;;33.10;21.73;;;;;;;-1.73;100.00;93732.47;5077345;28;20400;-72
2024/02/03 06:29:13;;;;;;;35.83;23.27;;;;;;;-1.66;100.00;93736.88;5071399;28;20051;-72
2024/02/03 06:31:40;;;;;;;35.75;24.15;;;;;;;-1.69;100.00;93738.84;5081957;28;20094;-72
2024/02/03 06:34:10;;;;;;;37.65;24.38;;;;;;;-1.60;100.00;93725.53;5083193;28;20056;-73
2024/02/03 06:36:37;;;;;;;35.47;22.88;;;;;;;-1.41;100.00;93739.97;5080282;28;20062;-72
2024/02/03 06:39:05;;;;;;;30.17;18.83;;;;;;;-1.29;100.00;93755.81;5073249;28;20045;-72
2024/02/03 06:41:33;;;;;;;32.88;19.70;;;;;;;-1.26;100.00;93749.72;5075329;28;20044;-72
2024/02/03 06:43:59;;;;;;;38.35;23.15;;;;;;;-1.19;100.00;93745.81;5072615;28;20050;-72
2024/02/03 06:46:26;;;;;;;30.92;18.30;;;;;;;-1.19;100.00;93753.38;5079132;28;20090;-72
2024/02/03 06:48:53;;;;;;;29.73;17.45;;;;;;;-1.11;100.00;93757.81;5078838;28;20044;-72
2024/02/03 06:51:20;;;;;;;30.40;20.50;;;;;;;-1.03;100.00;93739.53;5076316;28;20058;-71
2024/02/03 06:53:47;;;;;;;34.42;21.95;;;;;;;-0.93;100.00;93747.91;5082896;28;20854;-72
2024/02/03 06:56:15;;;;;;;40.67;25.25;;;;;;;-0.81;100.00;93746.94;5069769;28;20044;-72
2024/02/03 06:58:42;;;;;;;39.85;25.38;;;;;;;-0.70;100.00;93752.78;5072877;28;20404;-72
2024/02/03 07:01:09;;;;;;;47.00;28.50;;;;;;;-0.66;100.00;93746.56;5073909;28;20048;-73
2024/02/03 07:03:36;;;;;;;40.88;25.58;;;;;;;-0.48;100.00;93756.88;5071040;28;20048;-72
2024/02/03 07:06:22;;;;;;;40.80;25.95;;;;;;;-0.24;100.00;93754.94;5072227;28;20499;-72
2024/02/03 07:08:49;;;;;;;42.85;24.42;;;;;;;-0.16;100.00;93755.88;5072278;28;20041;-72
2024/02/03 07:11:17;;;;;;;37.65;22.10;;;;;;;0.06;100.00;93754.06;5082044;28;20063;-72
2024/02/03 07:13:44;;;;;;;41.20;23.58;;;;;;;0.19;100.00;93753.78;5071868;28;20048;-72
2024/02/03 07:16:11;;;;;;;40.38;27.23;;;;;;;0.42;99.92;93752.72;5072171;28;20393;-72
2024/02/03 07:18:38;;;;;;;38.42;27.05;;;;;;;0.54;100.00;93754.19;5069302;28;20052;-72
2024/02/03 07:21:05;;;;;;;46.42;28.52;;;;;;;0.75;100.00;93755.75;5072580;28;20527;-71
2024/02/03 07:23:32;;;;;;;35.72;26.10;;;;;;;0.87;100.00;93738.69;5070466;28;20051;-72
2024/02/03 07:25:59;;;;;;;37.95;26.00;;;;;;;1.11;99.70;93763.53;5082433;28;20052;-71
2024/02/03 07:28:27;;;;;;;41.72;22.33;;;;;;;1.19;97.21;93745.13;5070689;28;20130;-71
2024/02/03 07:30:54;;;;;;;29.55;18.67;;;;;;;1.44;98.08;93763.16;5069876;28;20046;-71
2024/02/03 07:33:21;;;;;;;29.23;18.63;;;;;;;1.59;98.91;93768.56;5071204;28;20044;-71
2024/02/03 07:35:48;;;;;;;29.45;20.05;;;;;;;1.79;97.16;93759.13;5069271;28;20044;-71
2024/02/03 07:38:33;;;;;;;31.17;18.25;;;;;;;2.11;95.50;93762.13;5073141;28;20048;-71
2024/02/03 07:41:00;;;;;;;36.45;20.25;;;;;;;2.19;95.05;93741.13;5072426;28;20050;-71
2024/02/03 07:43:28;;;;;;;31.67;20.88;;;;;;;2.44;94.54;93746.44;5070961;28;20074;-71
2024/02/03 07:45:55;;;;;;;30.38;20.77;;;;;;;2.52;92.03;93738.88;5068585;28;20056;-72
2024/02/03 07:48:22;;;;;;;32.13;19.70;;;;;;;2.69;90.38;93741.53;5075672;28;20049;-71
2024/02/03 07:50:49;;;;;;;31.58;20.65;;;;;;;2.73;90.15;93746.16;5068709;28;20048;-72
2024/02/03 07:53:16;;;;;;;35.72;21.35;;;;;;;2.83;89.71;93743.53;5073594;28;20094;-72
2024/02/03 07:55:43;;;;;;;36.40;22.33;;;;;;;2.90;89.73;93743.72;5069380;28;20761;-72
2024/02/03 07:58:10;;;;;;;33.10;19.50;;;;;;;2.98;88.27;93748.06;5069683;28;21055;-72
2024/02/03 08:00:38;;;;;;;21.85;11.45;;;;;;;3.13;86.15;93746.56;5086016;28;20055;-72
2024/02/03 08:03:05;;;;;;;14.77;8.38;;;;;;;3.15;83.73;93744.66;5078663;28;20406;-71
2024/02/03 08:05:32;;;;;;;65.10;27.92;;;;;;;3.27;83.74;93747.75;5067931;28;20534;-72
2024/02/03 08:08:00;;;;;;;15.82;8.30;;;;;;;3.31;82.43;93746.50;5070707;28;20044;-72
2024/02/03 08:10:28;;;;;;;11.63;7.13;;;;;;;3.32;82.01;93757.44;5070367;28;20040;-72
2024/02/03 08:12:55;;;;;;;17.60;9.85;;;;;;;3.34;81.33;93750.50;5070544;28;20064;-72
2024/02/03 08:15:22;;;;;;;21.00;12.95;;;;;;;3.39;81.22;93761.00;5070956;28;20055;-72
2024/02/03 08:17:50;;;;;;;14.55;8.68;;;;;;;3.45;81.55;93757.84;5069663;28;20040;-72
2024/02/03 08:20:17;;;;;;;15.60;9.73;;;;;;;3.47;80.75;93757.66;5078397;28;20055;-72
2024/02/03 08:22:44;;;;;;;15.45;8.65;;;;;;;3.53;80.78;93758.81;5074919;28;20416;-72
2024/02/03 08:25:11;;;;;;;11.10;6.85;;;;;;;3.57;80.63;93765.97;5069018;28;20053;-71
2024/02/03 08:27:38;;;;;;;18.80;12.02;;;;;;;3.61;80.02;93761.38;5071777;28;20048;-71
2024/02/03 08:30:07;;;;;;;14.65;8.65;;;;;;;3.68;79.47;93775.09;5074765;28;20051;-73
2024/02/03 08:32:34;;;;;;;12.63;7.85;;;;;;;3.64;79.59;93761.09;5070518;28;20048;-73
2024/02/03 08:35:02;;;;;;;12.68;7.93;;;;;;;3.73;78.96;93769.53;5073106;28;20048;-72
2024/02/03 08:37:29;;;;;;;11.52;6.82;;;;;;;3.74;79.37;93771.94;5076500;28;20048;-71
2024/02/03 08:39:56;;;;;;;20.38;13.50;;;;;;;3.84;79.55;93766.72;5071121;28;20578;-72
2024/02/03 08:42:23;;;;;;;13.57;7.28;;;;;;;3.76;78.35;93763.34;5070937;28;20059;-72
2024/02/03 08:44:50;;;;;;;14.25;8.10;;;;;;;3.85;78.30;93763.22;5076254;28;20044;-72
2024/02/03 08:47:17;;;;;;;18.85;9.52;;;;;;;3.85;77.50;93765.75;5073572;28;20048;-71
2024/02/03 08:49:51;;;;;;;13.80;7.40;;;;;;;3.96;78.04;93757.06;5072384;28;20089;-72
2024/02/03 08:52:20;;;;;;;15.63;6.78;;;;;;;3.90;77.96;93765.31;5075293;28;20052;-71
2024/02/03 08:54:47;;;;;;;11.13;6.55;;;;;;;3.87;76.34;93757.97;5078993;28;20045;-71
2024/02/03 08:57:14;;;;;;;9.73;6.78;;;;;;;3.87;76.21;93763.88;5070272;28;20420;-71
2024/02/03 08:59:41;;;;;;;13.95;7.47;;;;;;;3.81;76.34;93759.41;5068538;28;20050;-71
2024/02/03 09:02:07;;;;;;;16.33;7.35;;;;;;;3.85;76.03;93759.91;5072700;28;20056;-71
2024/02/03 09:04:34;;;;;;;13.68;7.53;;;;;;;3.82;76.18;93752.56;5073845;28;20439;-71
2024/02/03 09:07:02;;;;;;;14.60;7.05;;;;;;;3.73;76.08;93733.97;5072267;28;20048;-71
2024/02/03 09:09:30;;;;;;;13.05;6.38;;;;;;;3.81;75.64;93756.06;5077494;28;20044;-71
2024/02/03 09:11:57;;;;;;;14.38;7.22;;;;;;;3.75;76.06;93737.13;5074635;28;20058;-71
2024/02/03 09:14:24;;;;;;;9.90;5.85;;;;;;;3.95;75.47;93770.72;5074023;28;20048;-71
2024/02/03 09:16:51;;;;;;;10.27;6.32;;;;;;;3.93;75.72;93756.59;5071310;28;20045;-71
2024/02/03 09:19:18;;;;;;;9.93;6.25;;;;;;;4.02;74.53;93763.25;5071955;28;20048;-71
2024/02/03 09:21:45;;;;;;;10.75;6.45;;;;;;;3.83;74.15;93744.00;5075150;28;20051;-71
2024/02/03 09:24:11;;;;;;;13.27;7.43;;;;;;;4.14;73.76;93766.31;5081076;28;20138;-71
2024/02/03 09:26:41;;;;;;;10.32;5.75;;;;;;;4.17;73.71;93760.91;5082624;28;20051;-71
2024/02/03 09:29:08;;;;;;;10.25;5.18;;;;;;;4.25;74.06;93758.38;5070493;28;20048;-71
2024/02/03 09:31:35;;;;;;;7.15;5.18;;;;;;;4.01;73.80;93728.63;5071522;28;20114;-72
2024/02/03 09:34:04;;;;;;;8.63;4.60;;;;;;;4.19;72.07;93750.59;5073865;28;20063;-71
2024/02/03 09:36:31;;;;;;;8.40;4.75;;;;;;;4.22;72.47;93760.47;5073584;28;20526;-71
2024/02/03 09:38:59;;;;;;;8.73;5.97;;;;;;;4.34;72.04;93756.66;5076972;28;20048;-71
2024/02/03 09:41:28;;;;;;;8.68;4.57;;;;;;;4.44;72.57;93760.81;5079668;28;20131;-72
2024/02/03 09:43:59;;;;;;;9.45;5.95;;;;;;;4.51;71.77;93754.13;5082136;28;20054;-70
2024/02/03 09:46:26;;;;;;;13.40;7.47;;;;;;;4.53;71.06;93750.47;5074820;28;20055;-70
2024/02/03 09:48:53;;;;;;;9.02;5.45;;;;;;;4.59;70.61;93743.97;5079197;28;20090;-70
2024/02/03 09:51:20;;;;;;;9.25;5.60;;;;;;;4.75;70.42;93742.34;5071856;28;20126;-70
2024/02/03 09:53:48;;;;;;;9.60;6.47;;;;;;;4.85;70.38;93742.97;5076491;28;20048;-70
2024/02/03 09:56:16;;;;;;;10.30;5.95;;;;;;;4.93;70.81;93729.44;5075041;28;20048;-70
2024/02/03 09:58:44;;;;;;;10.43;4.82;;;;;;;4.97;70.29;93720.53;5072816;28;20408;-70
2024/02/03 10:01:13;;;;;;;8.43;3.78;;;;;;;5.00;70.08;93719.41;5074650;28;20501;-70
2024/02/03 10:03:45;;;;;;;5.68;3.58;;;;;;;5.13;69.12;93724.00;5072365;28;20044;-70
2024/02/03 10:06:14;;;;;;;16.65;10.13;;;;;;;5.19;68.74;93719.03;5073911;28;20080;-70
2024/02/03 10:08:51;;;;;;;27.70;15.32;;;;;;;5.40;68.59;93727.09;5077496;28;20500;-70
2024/02/03 10:11:19;;;;;;;51.08;26.80;;;;;;;5.44;67.90;93720.72;5082508;28;20061;-70
2024/02/03 10:13:48;;;;;;;11.45;6.05;;;;;;;5.48;67.89;93715.13;5070810;28;20052;-70
2024/02/03 10:16:17;;;;;;;13.10;8.38;;;;;;;5.51;67.09;93703.78;5081608;28;20049;-70
2024/02/03 10:18:44;;;;;;;10.20;4.82;;;;;;;5.43;66.22;93696.19;5072347;28;20169;-70
2024/02/03 10:21:11;;;;;;;6.22;3.70;;;;;;;5.43;66.77;93704.66;5071149;28;20044;-70
2024/02/03 10:23:38;;;;;;;11.95;5.55;;;;;;;5.50;66.24;93703.97;5074803;28;20127;-70
2024/02/03 10:26:05;;;;;;;7.50;4.75;;;;;;;5.49;65.79;93698.09;5070132;28;20948;-70
2024/02/03 10:28:41;;;;;;;8.52;4.80;;;;;;;5.51;64.74;93692.81;5070212;28;20044;-71
2024/02/03 10:31:07;;;;;;;;;;;;;;;5.59;65.16;93665.56;5080866;28;20048;-71
2024/02/03 10:33:36;;;;;;;14.48;7.40;;;;;;;5.63;65.52;93694.03;5071456;28;19930;-71
2024/02/03 10:36:03;;;;;;;8.77;5.20;;;;;;;5.68;65.30;93683.34;5084541;28;20048;-70
2024/02/03 10:38:30;;;;;;;15.00;5.22;;;;;;;5.71;65.00;93677.91;5073764;28;20048;-70
2024/02/03 10:40:58;;;;;;;20.20;10.27;;;;;;;5.80;65.33;93684.56;5070959;28;20088;-70
2024/02/03 10:43:29;;;;;;;26.25;11.45;;;;;;;5.87;63.67;93689.75;5072269;28;20047;-70
2024/02/03 10:46:01;;;;;;;22.77;10.23;;;;;;;5.91;65.02;93693.56;5074503;28;20064;-70
2024/02/03 10:48:29;;;;;;;8.63;4.07;;;;;;;5.88;64.81;93681.94;5069932;28;20419;-70
2024/02/03 10:51:01;;;;;;;6.80;3.75;;;;;;;5.92;64.93;93674.75;5071564;28;20045;-70
2024/02/03 10:53:32;;;;;;;6.53;3.28;;;;;;;5.73;63.74;93643.66;5073882;28;21105;-70
2024/02/03 10:56:04;;;;;;;11.95;5.43;;;;;;;5.79;64.45;93652.34;5080976;28;20040;-70
2024/02/03 10:58:33;;;;;;;15.70;6.70;;;;;;;5.67;65.24;93643.53;5079954;28;20052;-70
2024/02/03 11:01:11;;;;;;;13.60;6.10;;;;;;;5.81;64.51;93642.81;5072524;28;21081;-70
2024/02/03 11:03:38;;;;;;;11.30;5.72;;;;;;;5.73;64.98;93637.75;5071860;28;20416;-70
2024/02/03 11:06:08;;;;;;;11.45;5.00;;;;;;;5.84;65.88;93632.25;5076268;28;20051;-70
2024/02/03 11:08:35;;;;;;;17.02;7.03;;;;;;;6.01;64.09;93642.34;5075940;28;20045;-70
2024/02/03 11:11:02;;;;;;;5.65;3.30;;;;;;;6.03;64.17;93629.47;5071233;28;20056;-70
2024/02/03 11:13:30;;;;;;;8.18;3.38;;;;;;;5.97;65.06;93633.47;5071630;28;20602;-70
2024/02/03 11:15:58;;;;;;;15.30;6.45;;;;;;;5.99;66.04;93634.09;5073862;28;20598;-70
2024/02/03 11:18:26;;;;;;;39.70;14.20;;;;;;;6.13;65.37;93642.78;5069249;28;20059;-70
2024/02/03 11:21:04;;;;;;;8.18;4.53;;;;;;;6.33;64.52;93632.88;5068682;28;20040;-70
2024/02/03 11:23:33;;;;;;;8.18;3.50;;;;;;;6.20;64.10;93609.72;5081490;28;20472;-70
2024/02/03 11:26:00;;;;;;;19.67;7.72;;;;;;;6.43;64.11;93640.28;5069287;28;20138;-70